sensor_id;sensor_type;location;lat;lon;timestamp;temperature;humidity
74416;SHT31;62850;42.428;25.618;2022-12-18T00:02:11;12.90;78.02
74416;SHT31;62850;42.428;25.618;2022-12-18T00:04:37;12.94;78.19
74416;SHT31;62850;42.428;25.618;2022-12-18T00:07:02;12.87;78.54
74416;SHT31;62850;42.428;25.618;2022-12-18T00:09:28;12.93;78.50
74416;SHT31;62850;42.428;25.618;2022-12-18T00:11:54;12.93;78.63
74416;SHT31;62850;42.428;25.618;2022-12-18T00:14:19;12.93;78.87
74416;SHT31;62850;42.428;25.618;2022-12-18T00:16:45;12.93;78.97
74416;SHT31;62850;42.428;25.618;2022-12-18T00:19:12;12.97;79.27
74416;SHT31;62850;42.428;25.618;2022-12-18T00:21:37;12.94;79.53
74416;SHT31;62850;42.428;25.618;2022-12-18T00:24:03;12.90;79.67
74416;SHT31;62850;42.428;25.618;2022-12-18T00:26:31;12.87;79.68
74416;SHT31;62850;42.428;25.618;2022-12-18T00:29:02;12.86;79.90
74416;SHT31;62850;42.428;25.618;2022-12-18T00:31:28;12.86;79.72
74416;SHT31;62850;42.428;25.618;2022-12-18T00:33:55;12.84;80.05
74416;SHT31;62850;42.428;25.618;2022-12-18T00:36:26;12.83;80.22
74416;SHT31;62850;42.428;25.618;2022-12-18T00:38:56;12.83;80.14
74416;SHT31;62850;42.428;25.618;2022-12-18T00:41:22;12.87;80.37
74416;SHT31;62850;42.428;25.618;2022-12-18T00:44:09;12.83;80.41
74416;SHT31;62850;42.428;25.618;2022-12-18T00:46:35;12.80;80.51
74416;SHT31;62850;42.428;25.618;2022-12-18T00:49:01;12.79;80.47
74416;SHT31;62850;42.428;25.618;2022-12-18T00:51:26;12.73;80.42
74416;SHT31;62850;42.428;25.618;2022-12-18T00:53:52;12.56;80.73
74416;SHT31;62850;42.428;25.618;2022-12-18T00:56:18;12.38;81.59
74416;SHT31;62850;42.428;25.618;2022-12-18T00:58:46;12.35;81.76
74416;SHT31;62850;42.428;25.618;2022-12-18T01:01:12;12.34;81.81
74416;SHT31;62850;42.428;25.618;2022-12-18T01:03:38;12.28;81.93
74416;SHT31;62850;42.428;25.618;2022-12-18T01:06:07;12.10;82.71
74416;SHT31;62850;42.428;25.618;2022-12-18T01:08:34;11.91;83.46
74416;SHT31;62850;42.428;25.618;2022-12-18T01:11:00;11.94;83.31
74416;SHT31;62850;42.428;25.618;2022-12-18T01:13:25;12.08;82.85
74416;SHT31;62850;42.428;25.618;2022-12-18T01:15:51;12.13;81.80
74416;SHT31;62850;42.428;25.618;2022-12-18T01:18:17;12.17;81.24
74416;SHT31;62850;42.428;25.618;2022-12-18T01:20:43;12.21;81.03
74416;SHT31;62850;42.428;25.618;2022-12-18T01:23:08;12.24;81.26
74416;SHT31;62850;42.428;25.618;2022-12-18T01:25:36;12.25;81.65
74416;SHT31;62850;42.428;25.618;2022-12-18T01:28:01;12.34;81.22
74416;SHT31;62850;42.428;25.618;2022-12-18T01:30:27;12.31;80.48
74416;SHT31;62850;42.428;25.618;2022-12-18T01:32:53;12.24;80.77
74416;SHT31;62850;42.428;25.618;2022-12-18T01:35:18;12.26;80.77
74416;SHT31;62850;42.428;25.618;2022-12-18T01:37:44;12.26;81.14
74416;SHT31;62850;42.428;25.618;2022-12-18T01:40:10;12.17;78.99
74416;SHT31;62850;42.428;25.618;2022-12-18T01:42:35;12.14;78.95
74416;SHT31;62850;42.428;25.618;2022-12-18T01:50:31;12.21;79.00
74416;SHT31;62850;42.428;25.618;2022-12-18T01:53:05;12.08;79.00
74416;SHT31;62850;42.428;25.618;2022-12-18T01:55:36;12.08;78.48
74416;SHT31;62850;42.428;25.618;2022-12-18T01:58:04;12.08;78.34
74416;SHT31;62850;42.428;25.618;2022-12-18T02:00:30;12.13;79.17
74416;SHT31;62850;42.428;25.618;2022-12-18T02:02:56;12.11;80.24
74416;SHT31;62850;42.428;25.618;2022-12-18T02:10:51;11.63;82.51
74416;SHT31;62850;42.428;25.618;2022-12-18T02:13:41;11.63;82.53
74416;SHT31;62850;42.428;25.618;2022-12-18T02:16:44;11.55;82.56
74416;SHT31;62850;42.428;25.618;2022-12-18T02:19:27;11.39;82.76
74416;SHT31;62850;42.428;25.618;2022-12-18T02:27:52;11.43;82.98
74416;SHT31;62850;42.428;25.618;2022-12-18T02:30:19;11.39;83.22
74416;SHT31;62850;42.428;25.618;2022-12-18T02:32:49;11.43;83.03
74416;SHT31;62850;42.428;25.618;2022-12-18T02:35:22;11.50;82.79
74416;SHT31;62850;42.428;25.618;2022-12-18T02:37:49;11.47;82.55
74416;SHT31;62850;42.428;25.618;2022-12-18T02:40:22;11.39;83.06
74416;SHT31;62850;42.428;25.618;2022-12-18T02:42:48;11.39;83.29
74416;SHT31;62850;42.428;25.618;2022-12-18T02:45:14;11.29;83.61
74416;SHT31;62850;42.428;25.618;2022-12-18T02:47:42;11.35;83.81
74416;SHT31;62850;42.428;25.618;2022-12-18T02:50:35;11.19;83.91
74416;SHT31;62850;42.428;25.618;2022-12-18T02:56:15;11.02;85.10
74416;SHT31;62850;42.428;25.618;2022-12-18T03:01:21;10.99;83.53
74416;SHT31;62850;42.428;25.618;2022-12-18T03:03:55;11.05;82.22
74416;SHT31;62850;42.428;25.618;2022-12-18T03:06:41;11.12;82.09
74416;SHT31;62850;42.428;25.618;2022-12-18T03:09:10;11.22;82.56
74416;SHT31;62850;42.428;25.618;2022-12-18T03:11:41;11.19;81.12
74416;SHT31;62850;42.428;25.618;2022-12-18T03:14:30;11.22;80.79
74416;SHT31;62850;42.428;25.618;2022-12-18T03:17:02;11.22;80.77
74416;SHT31;62850;42.428;25.618;2022-12-18T03:19:31;11.26;80.82
74416;SHT31;62850;42.428;25.618;2022-12-18T03:22:00;11.35;81.01
74416;SHT31;62850;42.428;25.618;2022-12-18T03:24:29;11.36;81.24
74416;SHT31;62850;42.428;25.618;2022-12-18T03:27:02;11.35;81.68
74416;SHT31;62850;42.428;25.618;2022-12-18T03:29:38;11.11;81.85
74416;SHT31;62850;42.428;25.618;2022-12-18T03:32:10;11.20;81.41
74416;SHT31;62850;42.428;25.618;2022-12-18T03:34:39;11.22;81.65
74416;SHT31;62850;42.428;25.618;2022-12-18T03:37:06;11.26;80.05
74416;SHT31;62850;42.428;25.618;2022-12-18T03:39:32;11.35;79.32
74416;SHT31;62850;42.428;25.618;2022-12-18T03:44:59;11.37;79.04
74416;SHT31;62850;42.428;25.618;2022-12-18T03:50:29;11.49;79.01
74416;SHT31;62850;42.428;25.618;2022-12-18T03:53:20;11.64;78.41
74416;SHT31;62850;42.428;25.618;2022-12-18T03:55:48;11.67;77.97
74416;SHT31;62850;42.428;25.618;2022-12-18T03:58:19;11.76;77.74
74416;SHT31;62850;42.428;25.618;2022-12-18T04:00:45;11.81;77.90
74416;SHT31;62850;42.428;25.618;2022-12-18T04:03:13;11.87;76.18
74416;SHT31;62850;42.428;25.618;2022-12-18T04:05:40;11.78;76.04
74416;SHT31;62850;42.428;25.618;2022-12-18T04:08:07;11.77;75.62
74416;SHT31;62850;42.428;25.618;2022-12-18T04:10:36;11.70;76.21
74416;SHT31;62850;42.428;25.618;2022-12-18T04:13:02;11.74;76.40
74416;SHT31;62850;42.428;25.618;2022-12-18T04:15:27;11.76;76.49
74416;SHT31;62850;42.428;25.618;2022-12-18T04:17:53;11.83;76.35
74416;SHT31;62850;42.428;25.618;2022-12-18T04:20:18;11.88;76.93
74416;SHT31;62850;42.428;25.618;2022-12-18T04:22:44;11.98;76.10
74416;SHT31;62850;42.428;25.618;2022-12-18T04:25:10;12.01;75.24
74416;SHT31;62850;42.428;25.618;2022-12-18T04:27:35;12.11;75.47
74416;SHT31;62850;42.428;25.618;2022-12-18T04:30:01;12.17;75.23
74416;SHT31;62850;42.428;25.618;2022-12-18T04:32:26;12.21;76.02
74416;SHT31;62850;42.428;25.618;2022-12-18T04:34:52;12.28;75.78
74416;SHT31;62850;42.428;25.618;2022-12-18T04:37:18;12.24;76.31
74416;SHT31;62850;42.428;25.618;2022-12-18T04:39:43;12.05;76.85
74416;SHT31;62850;42.428;25.618;2022-12-18T04:42:09;12.08;76.91
74416;SHT31;62850;42.428;25.618;2022-12-18T04:44:34;12.15;76.88
74416;SHT31;62850;42.428;25.618;2022-12-18T04:47:00;11.98;77.12
74416;SHT31;62850;42.428;25.618;2022-12-18T04:49:25;11.95;77.08
74416;SHT31;62850;42.428;25.618;2022-12-18T04:51:51;11.95;75.66
74416;SHT31;62850;42.428;25.618;2022-12-18T04:54:20;11.90;76.14
74416;SHT31;62850;42.428;25.618;2022-12-18T04:56:45;11.84;76.04
74416;SHT31;62850;42.428;25.618;2022-12-18T04:59:11;11.78;76.18
74416;SHT31;62850;42.428;25.618;2022-12-18T05:01:37;11.70;76.55
74416;SHT31;62850;42.428;25.618;2022-12-18T05:04:02;11.73;76.49
74416;SHT31;62850;42.428;25.618;2022-12-18T05:06:28;11.73;76.96
74416;SHT31;62850;42.428;25.618;2022-12-18T05:08:54;11.73;76.77
74416;SHT31;62850;42.428;25.618;2022-12-18T05:11:19;11.71;76.80
74416;SHT31;62850;42.428;25.618;2022-12-18T05:13:45;11.50;76.67
74416;SHT31;62850;42.428;25.618;2022-12-18T05:16:12;11.53;76.59
74416;SHT31;62850;42.428;25.618;2022-12-18T05:18:38;11.50;76.15
74416;SHT31;62850;42.428;25.618;2022-12-18T05:21:04;11.55;76.52
74416;SHT31;62850;42.428;25.618;2022-12-18T05:23:30;11.56;76.89
74416;SHT31;62850;42.428;25.618;2022-12-18T05:26:04;11.57;76.59
74416;SHT31;62850;42.428;25.618;2022-12-18T05:28:31;11.59;75.65
74416;SHT31;62850;42.428;25.618;2022-12-18T05:30:59;11.56;75.60
74416;SHT31;62850;42.428;25.618;2022-12-18T05:33:28;11.49;75.32
74416;SHT31;62850;42.428;25.618;2022-12-18T05:35:58;11.47;75.25
74416;SHT31;62850;42.428;25.618;2022-12-18T05:38:28;11.49;74.58
74416;SHT31;62850;42.428;25.618;2022-12-18T05:40:54;11.46;74.97
74416;SHT31;62850;42.428;25.618;2022-12-18T05:43:20;11.46;74.83
74416;SHT31;62850;42.428;25.618;2022-12-18T05:45:47;11.49;74.43
74416;SHT31;62850;42.428;25.618;2022-12-18T05:48:13;11.49;74.53
74416;SHT31;62850;42.428;25.618;2022-12-18T05:50:41;11.52;74.49
74416;SHT31;62850;42.428;25.618;2022-12-18T05:53:08;11.40;74.57
74416;SHT31;62850;42.428;25.618;2022-12-18T05:55:35;11.40;73.96
74416;SHT31;62850;42.428;25.618;2022-12-18T05:58:01;11.37;73.67
74416;SHT31;62850;42.428;25.618;2022-12-18T06:00:27;11.42;74.10
74416;SHT31;62850;42.428;25.618;2022-12-18T06:02:53;11.40;74.09
74416;SHT31;62850;42.428;25.618;2022-12-18T06:05:18;11.25;74.27
74416;SHT31;62850;42.428;25.618;2022-12-18T06:07:43;11.27;74.02
74416;SHT31;62850;42.428;25.618;2022-12-18T06:10:09;11.32;73.95
74416;SHT31;62850;42.428;25.618;2022-12-18T06:12:35;11.30;73.50
74416;SHT31;62850;42.428;25.618;2022-12-18T06:15:00;11.35;73.62
74416;SHT31;62850;42.428;25.618;2022-12-18T06:17:30;11.33;73.69
74416;SHT31;62850;42.428;25.618;2022-12-18T06:19:56;11.42;73.52
74416;SHT31;62850;42.428;25.618;2022-12-18T06:22:22;11.35;73.39
74416;SHT31;62850;42.428;25.618;2022-12-18T06:24:47;11.40;73.98
74416;SHT31;62850;42.428;25.618;2022-12-18T06:27:13;11.09;73.77
74416;SHT31;62850;42.428;25.618;2022-12-18T06:29:38;11.08;74.55
74416;SHT31;62850;42.428;25.618;2022-12-18T06:32:04;11.04;74.34
74416;SHT31;62850;42.428;25.618;2022-12-18T06:34:29;11.11;74.72
74416;SHT31;62850;42.428;25.618;2022-12-18T06:36:55;11.12;74.34
74416;SHT31;62850;42.428;25.618;2022-12-18T06:39:20;11.16;74.16
74416;SHT31;62850;42.428;25.618;2022-12-18T06:41:46;11.23;73.32
74416;SHT31;62850;42.428;25.618;2022-12-18T06:44:11;11.20;73.28
74416;SHT31;62850;42.428;25.618;2022-12-18T06:46:37;11.16;73.37
74416;SHT31;62850;42.428;25.618;2022-12-18T06:49:03;11.02;73.24
74416;SHT31;62850;42.428;25.618;2022-12-18T06:51:29;11.16;72.86
74416;SHT31;62850;42.428;25.618;2022-12-18T06:53:54;11.12;72.90
74416;SHT31;62850;42.428;25.618;2022-12-18T06:56:20;11.09;72.32
74416;SHT31;62850;42.428;25.618;2022-12-18T06:58:45;11.08;72.75
74416;SHT31;62850;42.428;25.618;2022-12-18T07:01:12;11.08;72.75
74416;SHT31;62850;42.428;25.618;2022-12-18T07:03:39;11.05;72.77
74416;SHT31;62850;42.428;25.618;2022-12-18T07:06:05;11.08;72.44
74416;SHT31;62850;42.428;25.618;2022-12-18T07:08:31;10.98;72.58
74416;SHT31;62850;42.428;25.618;2022-12-18T07:10:57;10.98;72.68
74416;SHT31;62850;42.428;25.618;2022-12-18T07:13:22;10.95;72.78
74416;SHT31;62850;42.428;25.618;2022-12-18T07:15:48;10.99;72.17
74416;SHT31;62850;42.428;25.618;2022-12-18T07:18:14;10.92;72.26
74416;SHT31;62850;42.428;25.618;2022-12-18T07:20:39;10.98;72.44
74416;SHT31;62850;42.428;25.618;2022-12-18T07:23:05;11.04;71.93
74416;SHT31;62850;42.428;25.618;2022-12-18T07:25:36;11.04;72.04
74416;SHT31;62850;42.428;25.618;2022-12-18T07:28:03;11.04;72.45
74416;SHT31;62850;42.428;25.618;2022-12-18T07:30:29;10.92;72.35
74416;SHT31;62850;42.428;25.618;2022-12-18T07:32:54;10.89;72.41
74416;SHT31;62850;42.428;25.618;2022-12-18T07:35:19;10.84;72.31
74416;SHT31;62850;42.428;25.618;2022-12-18T07:37:45;10.87;71.99
74416;SHT31;62850;42.428;25.618;2022-12-18T07:40:11;10.88;72.65
74416;SHT31;62850;42.428;25.618;2022-12-18T07:42:37;10.79;72.97
74416;SHT31;62850;42.428;25.618;2022-12-18T07:45:03;10.87;72.89
74416;SHT31;62850;42.428;25.618;2022-12-18T07:47:28;10.91;72.94
74416;SHT31;62850;42.428;25.618;2022-12-18T07:49:54;10.94;73.06
74416;SHT31;62850;42.428;25.618;2022-12-18T07:52:20;10.98;72.42
74416;SHT31;62850;42.428;25.618;2022-12-18T07:54:46;10.94;72.73
74416;SHT31;62850;42.428;25.618;2022-12-18T07:57:14;10.97;72.57
74416;SHT31;62850;42.428;25.618;2022-12-18T07:59:39;10.98;72.09
74416;SHT31;62850;42.428;25.618;2022-12-18T08:02:05;10.89;72.39
74416;SHT31;62850;42.428;25.618;2022-12-18T08:04:31;11.05;72.62
74416;SHT31;62850;42.428;25.618;2022-12-18T08:06:56;11.16;72.36
74416;SHT31;62850;42.428;25.618;2022-12-18T08:09:22;10.99;71.71
74416;SHT31;62850;42.428;25.618;2022-12-18T08:11:47;11.06;72.14
74416;SHT31;62850;42.428;25.618;2022-12-18T08:14:13;11.14;72.24
74416;SHT31;62850;42.428;25.618;2022-12-18T08:16:39;11.05;71.40
74416;SHT31;62850;42.428;25.618;2022-12-18T08:19:05;11.05;71.03
74416;SHT31;62850;42.428;25.618;2022-12-18T08:21:31;10.94;71.12
74416;SHT31;62850;42.428;25.618;2022-12-18T08:23:59;10.97;70.93
74416;SHT31;62850;42.428;25.618;2022-12-18T08:26:26;10.91;70.73
74416;SHT31;62850;42.428;25.618;2022-12-18T08:28:54;10.77;70.89
74416;SHT31;62850;42.428;25.618;2022-12-18T08:31:20;10.77;70.53
74416;SHT31;62850;42.428;25.618;2022-12-18T08:33:48;10.79;70.67
74416;SHT31;62850;42.428;25.618;2022-12-18T08:36:14;10.84;70.98
74416;SHT31;62850;42.428;25.618;2022-12-18T08:38:40;10.88;70.82
74416;SHT31;62850;42.428;25.618;2022-12-18T08:41:10;10.87;70.07
74416;SHT31;62850;42.428;25.618;2022-12-18T08:43:36;10.87;70.08
74416;SHT31;62850;42.428;25.618;2022-12-18T08:46:21;10.85;69.98
74416;SHT31;62850;42.428;25.618;2022-12-18T08:48:48;10.79;70.24
74416;SHT31;62850;42.428;25.618;2022-12-18T08:51:19;10.82;70.64
74416;SHT31;62850;42.428;25.618;2022-12-18T08:53:45;10.84;70.00
74416;SHT31;62850;42.428;25.618;2022-12-18T08:56:11;10.91;69.66
74416;SHT31;62850;42.428;25.618;2022-12-18T08:58:36;10.94;69.71
74416;SHT31;62850;42.428;25.618;2022-12-18T09:01:03;11.06;70.10
74416;SHT31;62850;42.428;25.618;2022-12-18T09:03:30;11.16;70.20
74416;SHT31;62850;42.428;25.618;2022-12-18T09:05:56;11.25;71.14
74416;SHT31;62850;42.428;25.618;2022-12-18T09:08:21;11.36;71.60
74416;SHT31;62850;42.428;25.618;2022-12-18T09:10:48;11.37;71.99
74416;SHT31;62850;42.428;25.618;2022-12-18T09:13:15;11.36;71.49
74416;SHT31;62850;42.428;25.618;2022-12-18T09:15:42;11.36;71.89
74416;SHT31;62850;42.428;25.618;2022-12-18T09:18:08;11.35;72.39
74416;SHT31;62850;42.428;25.618;2022-12-18T09:20:35;11.23;72.48
74416;SHT31;62850;42.428;25.618;2022-12-18T09:23:02;11.18;73.96
74416;SHT31;62850;42.428;25.618;2022-12-18T09:25:28;11.06;74.98
74416;SHT31;62850;42.428;25.618;2022-12-18T09:28:01;11.06;73.85
74416;SHT31;62850;42.428;25.618;2022-12-18T09:30:27;11.05;74.90
74416;SHT31;62850;42.428;25.618;2022-12-18T09:32:52;10.92;75.31
74416;SHT31;62850;42.428;25.618;2022-12-18T09:35:18;10.91;76.82
74416;SHT31;62850;42.428;25.618;2022-12-18T09:37:44;10.82;76.21
74416;SHT31;62850;42.428;25.618;2022-12-18T09:40:14;10.69;76.97
74416;SHT31;62850;42.428;25.618;2022-12-18T09:42:40;10.68;77.68
74416;SHT31;62850;42.428;25.618;2022-12-18T09:45:13;10.69;78.38
74416;SHT31;62850;42.428;25.618;2022-12-18T09:47:41;10.68;78.05
74416;SHT31;62850;42.428;25.618;2022-12-18T09:50:33;10.61;78.13
74416;SHT31;62850;42.428;25.618;2022-12-18T09:53:04;10.60;79.67
74416;SHT31;62850;42.428;25.618;2022-12-18T09:55:34;10.61;80.48
74416;SHT31;62850;42.428;25.618;2022-12-18T09:58:19;10.48;80.57
74416;SHT31;62850;42.428;25.618;2022-12-18T10:00:46;10.44;80.14
74416;SHT31;62850;42.428;25.618;2022-12-18T10:03:14;10.41;79.70
74416;SHT31;62850;42.428;25.618;2022-12-18T10:17:02;10.05;78.99
74416;SHT31;62850;42.428;25.618;2022-12-18T10:19:38;9.92;79.17
74416;SHT31;62850;42.428;25.618;2022-12-18T10:22:14;9.89;80.18
74416;SHT31;62850;42.428;25.618;2022-12-18T10:27:23;9.77;79.95
74416;SHT31;62850;42.428;25.618;2022-12-18T10:29:49;9.74;79.26
74416;SHT31;62850;42.428;25.618;2022-12-18T10:32:18;9.68;79.44
74416;SHT31;62850;42.428;25.618;2022-12-18T10:34:48;9.54;79.55
74416;SHT31;62850;42.428;25.618;2022-12-18T10:37:20;9.61;80.07
74416;SHT31;62850;42.428;25.618;2022-12-18T10:40:06;9.57;78.66
74416;SHT31;62850;42.428;25.618;2022-12-18T10:42:32;9.59;78.64
74416;SHT31;62850;42.428;25.618;2022-12-18T10:45:05;9.69;78.99
74416;SHT31;62850;42.428;25.618;2022-12-18T10:47:33;9.61;79.85
74416;SHT31;62850;42.428;25.618;2022-12-18T10:49:59;9.54;80.47
74416;SHT31;62850;42.428;25.618;2022-12-18T10:52:25;9.44;78.94
74416;SHT31;62850;42.428;25.618;2022-12-18T10:54:59;9.21;78.19
74416;SHT31;62850;42.428;25.618;2022-12-18T10:57:38;9.19;78.94
74416;SHT31;62850;42.428;25.618;2022-12-18T11:00:23;9.32;79.10
74416;SHT31;62850;42.428;25.618;2022-12-18T11:02:50;9.35;79.67
74416;SHT31;62850;42.428;25.618;2022-12-18T11:05:35;9.38;80.89
74416;SHT31;62850;42.428;25.618;2022-12-18T11:08:02;9.32;81.22
74416;SHT31;62850;42.428;25.618;2022-12-18T11:10:31;9.30;81.60
74416;SHT31;62850;42.428;25.618;2022-12-18T11:13:18;9.27;80.63
74416;SHT31;62850;42.428;25.618;2022-12-18T11:15:46;9.10;78.61
74416;SHT31;62850;42.428;25.618;2022-12-18T11:18:22;9.10;79.84
74416;SHT31;62850;42.428;25.618;2022-12-18T11:20:52;9.17;79.63
74416;SHT31;62850;42.428;25.618;2022-12-18T11:23:18;9.17;79.78
74416;SHT31;62850;42.428;25.618;2022-12-18T11:25:57;9.03;79.58
74416;SHT31;62850;42.428;25.618;2022-12-18T11:31:25;9.13;81.06
74416;SHT31;62850;42.428;25.618;2022-12-18T11:36:33;8.91;80.26
74416;SHT31;62850;42.428;25.618;2022-12-18T11:39:05;8.84;79.69
74416;SHT31;62850;42.428;25.618;2022-12-18T11:41:41;8.84;79.76
74416;SHT31;62850;42.428;25.618;2022-12-18T11:44:51;8.79;79.67
74416;SHT31;62850;42.428;25.618;2022-12-18T11:49:52;8.87;81.65
74416;SHT31;62850;42.428;25.618;2022-12-18T11:54:51;8.91;80.90
74416;SHT31;62850;42.428;25.618;2022-12-18T11:57:39;9.04;81.63
74416;SHT31;62850;42.428;25.618;2022-12-18T12:02:45;9.11;79.97
74416;SHT31;62850;42.428;25.618;2022-12-18T12:05:48;9.21;81.35
74416;SHT31;62850;42.428;25.618;2022-12-18T12:19:46;9.10;80.19
74416;SHT31;62850;42.428;25.618;2022-12-18T12:22:47;9.01;80.88
74416;SHT31;62850;42.428;25.618;2022-12-18T12:25:44;9.10;80.64
74416;SHT31;62850;42.428;25.618;2022-12-18T12:36:41;9.51;81.42
74416;SHT31;62850;42.428;25.618;2022-12-18T12:39:13;9.58;81.29
74416;SHT31;62850;42.428;25.618;2022-12-18T12:41:42;9.59;81.09
74416;SHT31;62850;42.428;25.618;2022-12-18T12:44:37;9.54;80.97
74416;SHT31;62850;42.428;25.618;2022-12-18T12:47:23;9.47;81.61
74416;SHT31;62850;42.428;25.618;2022-12-18T12:49:50;9.47;81.18
74416;SHT31;62850;42.428;25.618;2022-12-18T12:52:35;9.47;80.79
74416;SHT31;62850;42.428;25.618;2022-12-18T12:55:05;9.49;80.99
74416;SHT31;62850;42.428;25.618;2022-12-18T12:57:38;9.52;80.98
74416;SHT31;62850;42.428;25.618;2022-12-18T13:00:09;9.62;80.98
74416;SHT31;62850;42.428;25.618;2022-12-18T13:02:39;9.63;80.78
74416;SHT31;62850;42.428;25.618;2022-12-18T13:05:23;9.65;80.52
74416;SHT31;62850;42.428;25.618;2022-12-18T13:07:53;9.72;80.31
74416;SHT31;62850;42.428;25.618;2022-12-18T13:13:03;9.81;79.96
74416;SHT31;62850;42.428;25.618;2022-12-18T13:20:38;9.45;78.41
74416;SHT31;62850;42.428;25.618;2022-12-18T13:34:22;9.45;79.32
74416;SHT31;62850;42.428;25.618;2022-12-18T13:36:48;9.44;79.09
74416;SHT31;62850;42.428;25.618;2022-12-18T13:41:43;9.55;79.31
74416;SHT31;62850;42.428;25.618;2022-12-18T13:46:48;9.41;79.59
74416;SHT31;62850;42.428;25.618;2022-12-18T13:49:22;9.38;79.08
74416;SHT31;62850;42.428;25.618;2022-12-18T13:51:50;9.45;79.25
74416;SHT31;62850;42.428;25.618;2022-12-18T13:54:30;9.38;79.52
74416;SHT31;62850;42.428;25.618;2022-12-18T13:56:58;9.30;78.45
74416;SHT31;62850;42.428;25.618;2022-12-18T13:59:36;9.21;78.40
74416;SHT31;62850;42.428;25.618;2022-12-18T14:02:23;9.20;78.84
74416;SHT31;62850;42.428;25.618;2022-12-18T14:04:49;9.20;78.29
74416;SHT31;62850;42.428;25.618;2022-12-18T14:07:18;9.14;78.57
74416;SHT31;62850;42.428;25.618;2022-12-18T14:09:56;9.17;78.65
74416;SHT31;62850;42.428;25.618;2022-12-18T14:12:28;9.20;77.97
74416;SHT31;62850;42.428;25.618;2022-12-18T14:18:00;9.28;77.54
74416;SHT31;62850;42.428;25.618;2022-12-18T14:20:32;9.23;77.78
74416;SHT31;62850;42.428;25.618;2022-12-18T14:22:58;9.26;77.01
74416;SHT31;62850;42.428;25.618;2022-12-18T14:25:29;9.27;76.50
74416;SHT31;62850;42.428;25.618;2022-12-18T14:30:36;9.14;75.67
74416;SHT31;62850;42.428;25.618;2022-12-18T14:33:08;9.13;76.28
74416;SHT31;62850;42.428;25.618;2022-12-18T14:38:34;9.04;77.12
74416;SHT31;62850;42.428;25.618;2022-12-18T14:41:13;9.01;77.61
74416;SHT31;62850;42.428;25.618;2022-12-18T14:43:40;8.97;78.00
74416;SHT31;62850;42.428;25.618;2022-12-18T14:46:37;8.99;78.49
74416;SHT31;62850;42.428;25.618;2022-12-18T14:51:55;8.86;79.51
74416;SHT31;62850;42.428;25.618;2022-12-18T14:54:22;8.83;79.92
74416;SHT31;62850;42.428;25.618;2022-12-18T14:56:51;8.87;80.14
74416;SHT31;62850;42.428;25.618;2022-12-18T14:59:24;8.87;80.24
74416;SHT31;62850;42.428;25.618;2022-12-18T15:02:01;8.80;80.84
74416;SHT31;62850;42.428;25.618;2022-12-18T15:04:37;8.82;81.07
74416;SHT31;62850;42.428;25.618;2022-12-18T15:07:21;8.73;80.90
74416;SHT31;62850;42.428;25.618;2022-12-18T15:10:09;8.65;80.93
74416;SHT31;62850;42.428;25.618;2022-12-18T15:12:40;8.58;81.23
74416;SHT31;62850;42.428;25.618;2022-12-18T15:23:26;8.25;85.46
74416;SHT31;62850;42.428;25.618;2022-12-18T15:28:43;8.20;85.47
74416;SHT31;62850;42.428;25.618;2022-12-18T15:33:40;8.04;86.01
74416;SHT31;62850;42.428;25.618;2022-12-18T15:36:11;8.04;85.42
74416;SHT31;62850;42.428;25.618;2022-12-18T15:38:36;7.94;85.49
74416;SHT31;62850;42.428;25.618;2022-12-18T15:41:02;7.93;85.83
74416;SHT31;62850;42.428;25.618;2022-12-18T15:43:28;7.95;85.15
74416;SHT31;62850;42.428;25.618;2022-12-18T15:46:05;7.80;85.91
74416;SHT31;62850;42.428;25.618;2022-12-18T15:48:40;7.79;85.63
74416;SHT31;62850;42.428;25.618;2022-12-18T15:51:13;7.67;86.09
74416;SHT31;62850;42.428;25.618;2022-12-18T15:53:40;7.66;86.16
74416;SHT31;62850;42.428;25.618;2022-12-18T15:56:10;7.62;85.91
74416;SHT31;62850;42.428;25.618;2022-12-18T15:58:54;7.52;86.05
74416;SHT31;62850;42.428;25.618;2022-12-18T16:01:20;7.52;86.62
74416;SHT31;62850;42.428;25.618;2022-12-18T16:03:46;7.59;86.41
74416;SHT31;62850;42.428;25.618;2022-12-18T16:06:12;7.67;86.38
74416;SHT31;62850;42.428;25.618;2022-12-18T16:08:37;7.53;86.40
74416;SHT31;62850;42.428;25.618;2022-12-18T16:11:03;7.53;86.73
74416;SHT31;62850;42.428;25.618;2022-12-18T16:13:29;7.55;86.66
74416;SHT31;62850;42.428;25.618;2022-12-18T16:15:54;7.60;86.43
74416;SHT31;62850;42.428;25.618;2022-12-18T16:18:23;7.46;85.83
74416;SHT31;62850;42.428;25.618;2022-12-18T16:20:48;7.39;84.92
74416;SHT31;62850;42.428;25.618;2022-12-18T16:23:14;7.33;85.11
74416;SHT31;62850;42.428;25.618;2022-12-18T16:25:41;7.25;85.25
74416;SHT31;62850;42.428;25.618;2022-12-18T16:28:06;7.16;85.52
74416;SHT31;62850;42.428;25.618;2022-12-18T16:30:32;7.21;85.82
74416;SHT31;62850;42.428;25.618;2022-12-18T16:32:58;7.22;85.45
74416;SHT31;62850;42.428;25.618;2022-12-18T16:35:25;7.04;85.11
74416;SHT31;62850;42.428;25.618;2022-12-18T16:37:50;7.01;86.21
74416;SHT31;62850;42.428;25.618;2022-12-18T16:40:17;7.05;86.21
74416;SHT31;62850;42.428;25.618;2022-12-18T16:42:44;7.11;85.78
74416;SHT31;62850;42.428;25.618;2022-12-18T16:45:16;7.08;86.00
74416;SHT31;62850;42.428;25.618;2022-12-18T16:47:42;7.01;86.00
74416;SHT31;62850;42.428;25.618;2022-12-18T16:50:08;7.04;86.16
74416;SHT31;62850;42.428;25.618;2022-12-18T16:52:34;7.02;85.90
74416;SHT31;62850;42.428;25.618;2022-12-18T16:55:00;6.98;85.87
74416;SHT31;62850;42.428;25.618;2022-12-18T16:57:26;6.94;85.52
74416;SHT31;62850;42.428;25.618;2022-12-18T16:59:53;6.98;85.77
74416;SHT31;62850;42.428;25.618;2022-12-18T17:02:25;6.91;86.00
74416;SHT31;62850;42.428;25.618;2022-12-18T17:04:55;7.02;85.66
74416;SHT31;62850;42.428;25.618;2022-12-18T17:07:21;6.92;85.58
74416;SHT31;62850;42.428;25.618;2022-12-18T17:09:47;7.00;85.44
74416;SHT31;62850;42.428;25.618;2022-12-18T17:12:15;6.92;85.10
74416;SHT31;62850;42.428;25.618;2022-12-18T17:14:41;6.91;85.04
74416;SHT31;62850;42.428;25.618;2022-12-18T17:17:09;6.94;85.02
74416;SHT31;62850;42.428;25.618;2022-12-18T17:19:35;6.90;85.90
74416;SHT31;62850;42.428;25.618;2022-12-18T17:22:01;6.90;85.73
74416;SHT31;62850;42.428;25.618;2022-12-18T17:24:26;6.90;85.59
74416;SHT31;62850;42.428;25.618;2022-12-18T17:26:52;6.85;85.33
74416;SHT31;62850;42.428;25.618;2022-12-18T17:29:19;6.87;85.11
74416;SHT31;62850;42.428;25.618;2022-12-18T17:31:45;6.83;85.42
74416;SHT31;62850;42.428;25.618;2022-12-18T17:34:12;6.90;85.28
74416;SHT31;62850;42.428;25.618;2022-12-18T17:36:38;6.87;85.91
74416;SHT31;62850;42.428;25.618;2022-12-18T17:39:10;6.91;85.79
74416;SHT31;62850;42.428;25.618;2022-12-18T17:41:40;6.90;85.78